<?xml version="1.0" encoding="UTF-8" standalone="no" ?>
<gpx xmlns="http://www.topografix.com/GPX/1/1" xmlns:xsi="http://www.w3.org/2001/XMLSchema-instance" xsi:schemaLocation="http://www.topografix.com/GPX/1/1 http://www.topografix.com/GPX/1/1/gpx.xsd" version="1.1" creator="VisuGPX - https://www.visugpx.com">
  <metadata>
    <name>CWxRM</name>
  </metadata>
  <trk>
    <name><![CDATA[CWxRM]]></name>
    <trkseg>
      <trkpt lat="50.8361" lon="2.92084">
        <ele>60.968</ele>
        <time>2018-05-01T14:16:01Z</time>
      </trkpt>
      <trkpt lat="50.83619" lon="2.92071">
        <ele>60.942</ele>
        <time>2018-05-01T14:16:17Z</time>
      </trkpt>
      <trkpt lat="50.83605" lon="2.91924">
        <ele>63.626</ele>
        <time>2018-05-01T14:17:30Z</time>
      </trkpt>
      <trkpt lat="50.83581" lon="2.91917">
        <ele>56.008</ele>
        <time>2018-05-01T14:17:57Z</time>
      </trkpt>
      <trkpt lat="50.83557" lon="2.91849">
        <ele>59.718</ele>
        <time>2018-05-01T14:18:36Z</time>
      </trkpt>
      <trkpt lat="50.8354" lon="2.91498">
        <ele>63.07</ele>
        <time>2018-05-01T14:21:25Z</time>
      </trkpt>
      <trkpt lat="50.83545" lon="2.91268">
        <ele>70.65</ele>
        <time>2018-05-01T14:23:08Z</time>
      </trkpt>
      <trkpt lat="50.83552" lon="2.9109">
        <ele>67.825</ele>
        <time>2018-05-01T14:24:37Z</time>
      </trkpt>
      <trkpt lat="50.83649" lon="2.90497">
        <ele>69.273</ele>
        <time>2018-05-01T14:29:44Z</time>
      </trkpt>
      <trkpt lat="50.83543" lon="2.9053">
        <ele>33.195</ele>
        <time>2018-05-01T14:31:59Z</time>
      </trkpt>
      <trkpt lat="50.83453" lon="2.90518">
        <ele>45.921</ele>
        <time>2018-05-01T14:33:02Z</time>
      </trkpt>
      <trkpt lat="50.83377" lon="2.9059">
        <ele>43.324</ele>
        <time>2018-05-01T14:34:15Z</time>
      </trkpt>
      <trkpt lat="50.8328" lon="2.90755">
        <ele>38.468</ele>
        <time>2018-05-01T14:36:05Z</time>
      </trkpt>
      <trkpt lat="50.83085" lon="2.91144">
        <ele>39.742</ele>
        <time>2018-05-01T14:40:02Z</time>
      </trkpt>
      <trkpt lat="50.8294" lon="2.91564">
        <ele>62.726</ele>
        <time>2018-05-01T14:44:01Z</time>
      </trkpt>
      <trkpt lat="50.8292" lon="2.91558">
        <ele>69.608</ele>
        <time>2018-05-01T14:44:20Z</time>
      </trkpt>
      <trkpt lat="50.82877" lon="2.91487">
        <ele>79.418</ele>
        <time>2018-05-01T14:45:09Z</time>
      </trkpt>
      <trkpt lat="50.82727" lon="2.91176">
        <ele>74.26</ele>
        <time>2018-05-01T14:48:08Z</time>
      </trkpt>
      <trkpt lat="50.82431" lon="2.90864">
        <ele>77.45</ele>
        <time>2018-05-01T14:52:36Z</time>
      </trkpt>
      <trkpt lat="50.82328" lon="2.90728">
        <ele>81.745</ele>
        <time>2018-05-01T14:54:13Z</time>
      </trkpt>
      <trkpt lat="50.82274" lon="2.90777">
        <ele>85.723</ele>
        <time>2018-05-01T14:55:28Z</time>
      </trkpt>
      <trkpt lat="50.82233" lon="2.90725">
        <ele>81.775</ele>
        <time>2018-05-01T14:56:16Z</time>
      </trkpt>
      <trkpt lat="50.82215" lon="2.90728">
        <ele>82.681</ele>
        <time>2018-05-01T14:56:43Z</time>
      </trkpt>
      <trkpt lat="50.82033" lon="2.90922">
        <ele>83.014</ele>
        <time>2018-05-01T14:59:29Z</time>
      </trkpt>
      <trkpt lat="50.82017" lon="2.90896">
        <ele>83.344</ele>
        <time>2018-05-01T14:59:51Z</time>
      </trkpt>
      <trkpt lat="50.82004" lon="2.90896">
        <ele>80.605</ele>
        <time>2018-05-01T15:00:04Z</time>
      </trkpt>
      <trkpt lat="50.81915" lon="2.91004">
        <ele>82.115</ele>
        <time>2018-05-01T15:01:51Z</time>
      </trkpt>
      <trkpt lat="50.81861" lon="2.90909">
        <ele>80.608</ele>
        <time>2018-05-01T15:03:04Z</time>
      </trkpt>
      <trkpt lat="50.81845" lon="2.90889">
        <ele>79.076</ele>
        <time>2018-05-01T15:03:20Z</time>
      </trkpt>
      <trkpt lat="50.81829" lon="2.90891">
        <ele>77.798</ele>
        <time>2018-05-01T15:03:36Z</time>
      </trkpt>
      <trkpt lat="50.81783" lon="2.90969">
        <ele>87.658</ele>
        <time>2018-05-01T15:04:25Z</time>
      </trkpt>
      <trkpt lat="50.81717" lon="2.91019">
        <ele>92.613</ele>
        <time>2018-05-01T15:05:23Z</time>
      </trkpt>
      <trkpt lat="50.81657" lon="2.9111">
        <ele>92.381</ele>
        <time>2018-05-01T15:06:33Z</time>
      </trkpt>
      <trkpt lat="50.81584" lon="2.91124">
        <ele>103.423</ele>
        <time>2018-05-01T15:07:26Z</time>
      </trkpt>
      <trkpt lat="50.81576" lon="2.91144">
        <ele>98.199</ele>
        <time>2018-05-01T15:07:46Z</time>
      </trkpt>
      <trkpt lat="50.81561" lon="2.91332">
        <ele>98.452</ele>
        <time>2018-05-01T15:09:33Z</time>
      </trkpt>
      <trkpt lat="50.81568" lon="2.91431">
        <ele>96.657</ele>
        <time>2018-05-01T15:10:32Z</time>
      </trkpt>
      <trkpt lat="50.81541" lon="2.91511">
        <ele>98.9</ele>
        <time>2018-05-01T15:11:59Z</time>
      </trkpt>
      <trkpt lat="50.81552" lon="2.9152">
        <ele>93.92</ele>
        <time>2018-05-01T15:12:15Z</time>
      </trkpt>
      <trkpt lat="50.81608" lon="2.91472">
        <ele>96.208</ele>
        <time>2018-05-01T15:13:10Z</time>
      </trkpt>
      <trkpt lat="50.81651" lon="2.91611">
        <ele>95.337</ele>
        <time>2018-05-01T15:14:24Z</time>
      </trkpt>
      <trkpt lat="50.81658" lon="2.91724">
        <ele>101.989</ele>
        <time>2018-05-01T15:17:21Z</time>
      </trkpt>
      <trkpt lat="50.81629" lon="2.91748">
        <ele>102.349</ele>
        <time>2018-05-01T15:18:15Z</time>
      </trkpt>
      <trkpt lat="50.81621" lon="2.91784">
        <ele>99.594</ele>
        <time>2018-05-01T15:18:57Z</time>
      </trkpt>
      <trkpt lat="50.81486" lon="2.9172">
        <ele>103.282</ele>
        <time>2018-05-01T15:20:59Z</time>
      </trkpt>
      <trkpt lat="50.81437" lon="2.91813">
        <ele>89.164</ele>
        <time>2018-05-01T15:22:12Z</time>
      </trkpt>
      <trkpt lat="50.81419" lon="2.91804">
        <ele>91.88</ele>
        <time>2018-05-01T15:22:31Z</time>
      </trkpt>
      <trkpt lat="50.81413" lon="2.91752">
        <ele>87.943</ele>
        <time>2018-05-01T15:22:59Z</time>
      </trkpt>
      <trkpt lat="50.81379" lon="2.91696">
        <ele>79.956</ele>
        <time>2018-05-01T15:24:03Z</time>
      </trkpt>
      <trkpt lat="50.81356" lon="2.91689">
        <ele>85.759</ele>
        <time>2018-05-01T15:24:24Z</time>
      </trkpt>
      <trkpt lat="50.81325" lon="2.91785">
        <ele>85.014</ele>
        <time>2018-05-01T15:25:28Z</time>
      </trkpt>
      <trkpt lat="50.81312" lon="2.91917">
        <ele>93.808</ele>
        <time>2018-05-01T15:28:02Z</time>
      </trkpt>
      <trkpt lat="50.81257" lon="2.91995">
        <ele>101.117</ele>
        <time>2018-05-01T15:28:59Z</time>
      </trkpt>
      <trkpt lat="50.81204" lon="2.92158">
        <ele>88.769</ele>
        <time>2018-05-01T15:30:23Z</time>
      </trkpt>
      <trkpt lat="50.81187" lon="2.92346">
        <ele>81.479</ele>
        <time>2018-05-01T15:31:53Z</time>
      </trkpt>
      <trkpt lat="50.81197" lon="2.92401">
        <ele>88.754</ele>
        <time>2018-05-01T15:32:18Z</time>
      </trkpt>
      <trkpt lat="50.8116" lon="2.92553">
        <ele>92.192</ele>
        <time>2018-05-01T15:33:25Z</time>
      </trkpt>
      <trkpt lat="50.81163" lon="2.92661">
        <ele>90.614</ele>
        <time>2018-05-01T15:34:15Z</time>
      </trkpt>
      <trkpt lat="50.8118" lon="2.92741">
        <ele>84.85</ele>
        <time>2018-05-01T15:34:52Z</time>
      </trkpt>
      <trkpt lat="50.81211" lon="2.92794">
        <ele>85.913</ele>
        <time>2018-05-01T15:35:27Z</time>
      </trkpt>
      <trkpt lat="50.81204" lon="2.92872">
        <ele>80.724</ele>
        <time>2018-05-01T15:35:58Z</time>
      </trkpt>
      <trkpt lat="50.8122" lon="2.93056">
        <ele>91.504</ele>
        <time>2018-05-01T15:37:24Z</time>
      </trkpt>
      <trkpt lat="50.81248" lon="2.9313">
        <ele>90.614</ele>
        <time>2018-05-01T15:38:02Z</time>
      </trkpt>
      <trkpt lat="50.81289" lon="2.93495">
        <ele>92.908</ele>
        <time>2018-05-01T15:40:53Z</time>
      </trkpt>
      <trkpt lat="50.81348" lon="2.93612">
        <ele>80.294</ele>
        <time>2018-05-01T15:42:11Z</time>
      </trkpt>
      <trkpt lat="50.81369" lon="2.93781">
        <ele>76.446</ele>
        <time>2018-05-01T15:43:36Z</time>
      </trkpt>
      <trkpt lat="50.81468" lon="2.93709">
        <ele>77.796</ele>
        <time>2018-05-01T15:45:18Z</time>
      </trkpt>
      <trkpt lat="50.81485" lon="2.93625">
        <ele>76.161</ele>
        <time>2018-05-01T15:46:17Z</time>
      </trkpt>
      <trkpt lat="50.81552" lon="2.93671">
        <ele>81.719</ele>
        <time>2018-05-01T15:47:22Z</time>
      </trkpt>
      <trkpt lat="50.8166" lon="2.93715">
        <ele>81.021</ele>
        <time>2018-05-01T15:48:46Z</time>
      </trkpt>
      <trkpt lat="50.81789" lon="2.93597">
        <ele>83.037</ele>
        <time>2018-05-01T15:50:40Z</time>
      </trkpt>
      <trkpt lat="50.81879" lon="2.93591">
        <ele>84.91</ele>
        <time>2018-05-01T15:51:54Z</time>
      </trkpt>
      <trkpt lat="50.81904" lon="2.93608">
        <ele>88.446</ele>
        <time>2018-05-01T15:52:20Z</time>
      </trkpt>
      <trkpt lat="50.8192" lon="2.9357">
        <ele>82.488</ele>
        <time>2018-05-01T15:52:50Z</time>
      </trkpt>
      <trkpt lat="50.82062" lon="2.93395">
        <ele>85.216</ele>
        <time>2018-05-01T15:55:25Z</time>
      </trkpt>
      <trkpt lat="50.82144" lon="2.9324">
        <ele>91.908</ele>
        <time>2018-05-01T15:57:08Z</time>
      </trkpt>
      <trkpt lat="50.82146" lon="2.93139">
        <ele>92.466</ele>
        <time>2018-05-01T15:58:03Z</time>
      </trkpt>
      <trkpt lat="50.82234" lon="2.92936">
        <ele>91.968</ele>
        <time>2018-05-01T16:00:07Z</time>
      </trkpt>
      <trkpt lat="50.82268" lon="2.92913">
        <ele>92.638</ele>
        <time>2018-05-01T16:00:44Z</time>
      </trkpt>
      <trkpt lat="50.82368" lon="2.92737">
        <ele>99.893</ele>
        <time>2018-05-01T16:02:43Z</time>
      </trkpt>
      <trkpt lat="50.82415" lon="2.92789">
        <ele>103.481</ele>
        <time>2018-05-01T16:03:30Z</time>
      </trkpt>
      <trkpt lat="50.82461" lon="2.92895">
        <ele>105.533</ele>
        <time>2018-05-01T16:04:33Z</time>
      </trkpt>
      <trkpt lat="50.82463" lon="2.93071">
        <ele>105.979</ele>
        <time>2018-05-01T16:05:58Z</time>
      </trkpt>
      <trkpt lat="50.82381" lon="2.93285">
        <ele>99.872</ele>
        <time>2018-05-01T16:08:03Z</time>
      </trkpt>
      <trkpt lat="50.82333" lon="2.93455">
        <ele>101.773</ele>
        <time>2018-05-01T16:09:32Z</time>
      </trkpt>
      <trkpt lat="50.8234" lon="2.93549">
        <ele>98.385</ele>
        <time>2018-05-01T16:10:22Z</time>
      </trkpt>
      <trkpt lat="50.82318" lon="2.93589">
        <ele>103.013</ele>
        <time>2018-05-01T16:10:43Z</time>
      </trkpt>
      <trkpt lat="50.82295" lon="2.93739">
        <ele>100.708</ele>
        <time>2018-05-01T16:11:57Z</time>
      </trkpt>
      <trkpt lat="50.82325" lon="2.93677">
        <ele>98.499</ele>
        <time>2018-05-01T16:12:52Z</time>
      </trkpt>
      <trkpt lat="50.82609" lon="2.94339">
        <ele>97.481</ele>
        <time>2018-05-01T16:20:02Z</time>
      </trkpt>
      <trkpt lat="50.82814" lon="2.94897">
        <ele>89.671</ele>
        <time>2018-05-01T16:25:29Z</time>
      </trkpt>
      <trkpt lat="50.83047" lon="2.95254">
        <ele>102.966</ele>
        <time>2018-05-01T16:30:29Z</time>
      </trkpt>
      <trkpt lat="50.83116" lon="2.95127">
        <ele>104.084</ele>
        <time>2018-05-01T16:31:54Z</time>
      </trkpt>
      <trkpt lat="50.83165" lon="2.94975">
        <ele>104.786</ele>
        <time>2018-05-01T16:33:34Z</time>
      </trkpt>
      <trkpt lat="50.83234" lon="2.95058">
        <ele>104.842</ele>
        <time>2018-05-01T16:34:42Z</time>
      </trkpt>
      <trkpt lat="50.8335" lon="2.94925">
        <ele>103.755</ele>
        <time>2018-05-01T16:36:29Z</time>
      </trkpt>
      <trkpt lat="50.8339" lon="2.94803">
        <ele>105.474</ele>
        <time>2018-05-01T16:37:37Z</time>
      </trkpt>
      <trkpt lat="50.83531" lon="2.94785">
        <ele>103.856</ele>
        <time>2018-05-01T16:39:29Z</time>
      </trkpt>
      <trkpt lat="50.83542" lon="2.9477">
        <ele>103.721</ele>
        <time>2018-05-01T16:39:43Z</time>
      </trkpt>
      <trkpt lat="50.83541" lon="2.94723">
        <ele>99.708</ele>
        <time>2018-05-01T16:40:06Z</time>
      </trkpt>
      <trkpt lat="50.83611" lon="2.94706">
        <ele>93.979</ele>
        <time>2018-05-01T16:41:01Z</time>
      </trkpt>
      <trkpt lat="50.83675" lon="2.9465">
        <ele>92.591</ele>
        <time>2018-05-01T16:41:58Z</time>
      </trkpt>
      <trkpt lat="50.83834" lon="2.94455">
        <ele>93.981</ele>
        <time>2018-05-01T16:44:27Z</time>
      </trkpt>
      <trkpt lat="50.83871" lon="2.94371">
        <ele>93.736</ele>
        <time>2018-05-01T16:45:14Z</time>
      </trkpt>
      <trkpt lat="50.83943" lon="2.93932">
        <ele>90.364</ele>
        <time>2018-05-01T16:49:00Z</time>
      </trkpt>
      <trkpt lat="50.83982" lon="2.93851">
        <ele>89.436</ele>
        <time>2018-05-01T16:49:48Z</time>
      </trkpt>
      <trkpt lat="50.8395" lon="2.93773">
        <ele>90.312</ele>
        <time>2018-05-01T16:50:35Z</time>
      </trkpt>
      <trkpt lat="50.83934" lon="2.9355">
        <ele>93.325</ele>
        <time>2018-05-01T16:52:23Z</time>
      </trkpt>
      <trkpt lat="50.83858" lon="2.93532">
        <ele>91.753</ele>
        <time>2018-05-01T16:53:28Z</time>
      </trkpt>
      <trkpt lat="50.84098" lon="2.9296">
        <ele>96.204</ele>
        <time>2018-05-01T16:59:27Z</time>
      </trkpt>
      <trkpt lat="50.84019" lon="2.92149">
        <ele>80.714</ele>
        <time>2018-05-01T17:06:17Z</time>
      </trkpt>
      <trkpt lat="50.84009" lon="2.92135">
        <ele>83.508</ele>
        <time>2018-05-01T17:06:31Z</time>
      </trkpt>
      <trkpt lat="50.83962" lon="2.9214">
        <ele>77.097</ele>
        <time>2018-05-01T17:07:07Z</time>
      </trkpt>
      <trkpt lat="50.83764" lon="2.92204">
        <ele>74.039</ele>
        <time>2018-05-01T17:10:17Z</time>
      </trkpt>
      <trkpt lat="50.83651" lon="2.92219">
        <ele>69.719</ele>
        <time>2018-05-01T17:11:39Z</time>
      </trkpt>
      <trkpt lat="50.83625" lon="2.92211">
        <ele>68.654</ele>
        <time>2018-05-01T17:12:03Z</time>
      </trkpt>
      <trkpt lat="50.83611" lon="2.92221">
        <ele>67.712</ele>
        <time>2018-05-01T17:12:15Z</time>
      </trkpt>
      <trkpt lat="50.83581" lon="2.92202">
        <ele>69.844</ele>
        <time>2018-05-01T17:12:34Z</time>
      </trkpt>
      <trkpt lat="50.83524" lon="2.92225">
        <ele>65.23</ele>
        <time>2018-05-01T17:13:19Z</time>
      </trkpt>
      <trkpt lat="50.83474" lon="2.92225">
        <ele>66.723</ele>
        <time>2018-05-01T17:14:07Z</time>
      </trkpt>
    </trkseg>
  </trk>
</gpx>